Time;durP1;ratioP1;P1;durP2;ratioP2;P2;SDS_P1;SDS_P2;PMS_P1;PMS_P2;Temp;Humidity;BMP_temperature;BMP_pressure;BME280_temperature;BME280_humidity;BME280_pressure;Samples;Min_cycle;Max_cycle;Signal;HPM_P1;HPM_P2
2024/01/06 00:01:23;;;;;;;25.50;16.50;;;;;;;7.61;63.39;94731.84;5077227;28;20177;-73
2024/01/06 00:03:48;;;;;;;26.53;17.53;;;;;;;7.85;62.95;94733.97;5081943;28;20213;-71
2024/01/06 00:06:14;;;;;;;23.80;16.73;;;;;;;7.88;63.01;94731.91;5074834;28;20248;-72
2024/01/06 00:08:39;;;;;;;23.60;16.47;;;;;;;7.77;63.07;94737.31;5077745;28;20213;-71
2024/01/06 00:11:05;;;;;;;24.13;14.90;;;;;;;7.80;63.00;94728.34;5060720;28;20257;-71
2024/01/06 00:13:30;;;;;;;35.97;18.60;;;;;;;7.72;63.60;94716.81;5075365;28;20197;-72
2024/01/06 00:15:56;;;;;;;26.87;17.13;;;;;;;7.64;63.87;94700.16;5081090;28;20223;-72
2024/01/06 00:18:21;;;;;;;28.67;17.93;;;;;;;7.79;63.56;94718.84;5078059;28;20228;-73
2024/01/06 00:20:47;;;;;;;23.87;17.03;;;;;;;7.90;63.12;94735.22;5073816;28;20244;-71
2024/01/06 00:23:12;;;;;;;28.57;17.57;;;;;;;7.67;64.02;94739.13;5071685;28;20700;-71
2024/01/06 00:25:38;;;;;;;29.67;21.73;;;;;;;7.65;64.61;94744.50;5072228;28;20180;-70
2024/01/06 00:28:03;;;;;;;30.23;20.43;;;;;;;7.72;64.27;94748.22;5069259;28;20221;-72
2024/01/06 00:30:29;;;;;;;31.93;19.57;;;;;;;7.62;64.96;94729.09;5060685;28;20213;-73
2024/01/06 00:32:54;;;;;;;25.30;18.30;;;;;;;7.76;64.38;94737.47;5069926;28;20311;-71
2024/01/06 00:35:20;;;;;;;39.93;23.37;;;;;;;7.65;65.11;94741.06;5076571;28;20688;-71
2024/01/06 00:37:45;;;;;;;31.60;19.33;;;;;;;7.66;64.78;94746.16;5075552;28;20602;-71
2024/01/06 00:40:11;;;;;;;33.30;19.20;;;;;;;7.72;64.54;94729.91;5079181;28;20224;-73
2024/01/06 00:42:36;;;;;;;35.47;20.63;;;;;;;7.78;64.35;94738.97;5074983;28;20217;-72
2024/01/06 00:45:04;;;;;;;30.90;18.37;;;;;;;7.84;64.02;94748.88;5073080;28;20277;-71
2024/01/06 00:47:29;;;;;;;28.73;18.93;;;;;;;7.75;64.38;94736.63;5072299;28;20225;-71
2024/01/06 00:49:54;;;;;;;27.60;18.40;;;;;;;7.79;64.25;94730.16;5069781;28;20181;-72
2024/01/06 00:52:20;;;;;;;33.10;19.60;;;;;;;7.81;64.34;94728.22;5072592;28;20316;-71
2024/01/06 00:54:46;;;;;;;32.27;20.40;;;;;;;7.87;64.27;94721.59;5071917;28;20217;-72
2024/01/06 00:57:12;;;;;;;33.17;19.83;;;;;;;7.93;64.27;94724.44;5075005;28;20222;-70
2024/01/06 00:59:37;;;;;;;28.63;21.67;;;;;;;7.81;64.16;94730.84;5068965;28;20226;-71
2024/01/06 01:02:03;;;;;;;30.57;20.60;;;;;;;7.78;64.33;94730.28;5072430;28;20270;-72
2024/01/06 01:04:28;;;;;;;33.00;20.87;;;;;;;7.68;64.78;94731.13;5071826;28;20190;-71
2024/01/06 01:06:54;;;;;;;35.80;21.07;;;;;;;7.68;64.75;94727.69;5072359;28;20228;-71
2024/01/06 01:09:19;;;;;;;29.47;21.07;;;;;;;7.69;64.43;94731.94;5070413;28;20247;-69
2024/01/06 01:11:45;;;;;;;27.20;19.37;;;;;;;7.72;64.56;94729.06;5073393;28;20247;-70
2024/01/06 01:14:10;;;;;;;30.13;19.10;;;;;;;7.60;64.64;94724.97;5077141;28;20184;-70
2024/01/06 01:16:36;;;;;;;32.67;20.40;;;;;;;7.66;64.51;94719.16;5079431;28;20185;-71
2024/01/06 01:19:02;;;;;;;28.93;19.60;;;;;;;7.60;64.51;94714.50;5073269;28;20231;-71
2024/01/06 01:21:28;;;;;;;29.80;18.50;;;;;;;7.70;64.06;94718.75;5068225;28;20254;-71
2024/01/06 01:23:53;;;;;;;27.37;19.00;;;;;;;7.69;63.84;94714.44;5065444;28;20229;-71
2024/01/06 01:26:18;;;;;;;27.67;18.23;;;;;;;7.63;64.03;94725.50;5072109;28;20251;-70
2024/01/06 01:28:44;;;;;;;30.03;19.27;;;;;;;7.29;65.13;94722.50;5074198;28;20187;-71
2024/01/06 01:31:10;;;;;;;30.67;19.40;;;;;;;7.40;65.24;94705.84;5059010;28;20221;-71
2024/01/06 01:33:35;;;;;;;24.77;19.67;;;;;;;7.44;64.73;94696.75;5074122;28;20232;-71
2024/01/06 01:36:00;;;;;;;27.70;18.57;;;;;;;7.45;64.96;94708.88;5067561;28;20216;-70
2024/01/06 01:38:26;;;;;;;30.67;18.67;;;;;;;7.59;64.27;94704.97;5072962;28;20221;-71
2024/01/06 01:40:51;;;;;;;24.73;18.13;;;;;;;7.54;64.30;94696.72;5074155;28;20192;-74
2024/01/06 01:43:23;;;;;;;32.97;18.47;;;;;;;7.54;64.49;94691.50;5072552;28;20216;-72
2024/01/06 01:45:52;;;;;;;27.13;17.73;;;;;;;7.54;64.67;94696.72;5073816;28;20217;-70
2024/01/06 01:48:19;;;;;;;24.87;18.40;;;;;;;7.41;64.91;94695.25;5073820;28;20227;-70
2024/01/06 01:50:46;;;;;;;29.43;19.33;;;;;;;7.41;64.70;94687.41;5066941;28;20228;-70
2024/01/06 01:53:12;;;;;;;30.03;18.20;;;;;;;7.54;64.39;94688.88;5072855;28;20189;-70
2024/01/06 01:55:38;;;;;;;27.30;17.30;;;;;;;7.23;64.80;94681.22;5075360;28;20177;-70
2024/01/06 01:58:05;;;;;;;27.03;18.07;;;;;;;7.13;65.38;94686.47;5070381;28;20263;-71
2024/01/06 02:00:30;;;;;;;28.30;19.07;;;;;;;7.10;65.35;94686.75;5071853;28;20224;-71
2024/01/06 02:02:58;;;;;;;23.50;16.20;;;;;;;7.05;65.65;94681.09;5075298;28;20257;-70
2024/01/06 02:05:24;;;;;;;30.27;19.80;;;;;;;7.09;65.71;94686.91;5055289;28;20213;-71
2024/01/06 02:07:50;;;;;;;21.80;17.43;;;;;;;7.34;65.42;94685.47;5074930;28;20317;-70
2024/01/06 02:10:17;;;;;;;25.87;18.93;;;;;;;7.17;65.44;94676.56;5066432;28;20217;-70
2024/01/06 02:12:42;;;;;;;26.33;19.00;;;;;;;7.14;65.65;94667.22;5081175;28;20212;-70
2024/01/06 02:15:08;;;;;;;27.70;17.53;;;;;;;7.22;65.37;94663.91;5060118;28;20231;-70
2024/01/06 02:17:33;;;;;;;29.40;19.23;;;;;;;7.28;65.40;94638.00;5071928;28;20280;-69
2024/01/06 02:19:59;;;;;;;32.60;20.30;;;;;;;7.28;65.33;94639.78;5073252;28;20271;-69
2024/01/06 02:22:24;;;;;;;27.40;17.73;;;;;;;7.16;66.08;94649.56;5075694;28;20188;-69
2024/01/06 02:24:50;;;;;;;29.97;20.80;;;;;;;7.24;65.93;94657.56;5075168;28;20216;-69
2024/01/06 02:27:15;;;;;;;32.70;21.80;;;;;;;7.28;66.46;94647.63;5078433;28;20227;-70
2024/01/06 02:29:40;;;;;;;35.47;22.17;;;;;;;7.36;66.21;94639.09;5077177;28;20212;-70
2024/01/06 02:32:06;;;;;;;34.87;21.97;;;;;;;7.29;66.10;94651.91;5071710;28;20188;-70
2024/01/06 02:34:32;;;;;;;27.77;21.23;;;;;;;7.22;66.52;94642.97;5072138;28;20279;-70
2024/01/06 02:36:58;;;;;;;38.33;20.23;;;;;;;7.32;66.41;94622.84;5073884;28;20273;-70
2024/01/06 02:39:23;;;;;;;26.43;20.80;;;;;;;7.32;66.49;94646.38;5072808;28;20220;-70
2024/01/06 02:41:49;;;;;;;27.90;21.27;;;;;;;7.29;66.37;94637.03;5069632;28;20300;-70
2024/01/06 02:44:15;;;;;;;31.27;19.10;;;;;;;7.32;66.13;94622.84;5075308;28;20243;-70
2024/01/06 02:46:40;;;;;;;28.87;20.17;;;;;;;7.36;66.05;94612.94;5078955;28;20242;-70
2024/01/06 02:49:07;;;;;;;29.83;19.80;;;;;;;7.34;65.83;94618.28;5070771;28;20256;-70
2024/01/06 02:51:33;;;;;;;28.17;19.13;;;;;;;7.44;65.86;94629.56;5071143;28;20231;-70
2024/01/06 02:53:58;;;;;;;31.33;19.27;;;;;;;7.49;65.45;94645.66;5075221;28;20219;-70
2024/01/06 02:56:23;;;;;;;24.93;19.20;;;;;;;7.51;65.34;94616.72;5071486;28;20221;-69
2024/01/06 02:58:49;;;;;;;26.60;19.03;;;;;;;7.46;65.13;94605.88;5072633;28;20200;-70
2024/01/06 03:01:14;;;;;;;29.67;18.73;;;;;;;7.47;64.76;94600.50;5083922;28;20212;-70
2024/01/06 03:03:40;;;;;;;24.77;16.67;;;;;;;7.45;64.57;94601.59;5070056;28;20212;-70
2024/01/06 03:06:05;;;;;;;18.97;14.30;;;;;;;7.55;63.85;94606.81;5071334;28;20208;-70
2024/01/06 03:08:31;;;;;;;20.20;14.17;;;;;;;7.51;63.13;94587.94;5071335;28;20267;-71
2024/01/06 03:10:56;;;;;;;20.77;12.13;;;;;;;7.44;62.41;94606.03;5066302;28;20191;-71
2024/01/06 03:13:22;;;;;;;20.27;12.63;;;;;;;7.42;62.47;94604.50;5069981;28;20181;-71
2024/01/06 03:15:47;;;;;;;16.77;11.67;;;;;;;7.48;62.14;94610.00;5074306;28;20217;-70
2024/01/06 03:18:12;;;;;;;15.40;10.53;;;;;;;7.49;61.08;94598.56;5073457;28;20220;-71
2024/01/06 03:20:38;;;;;;;16.03;11.20;;;;;;;7.39;61.50;94603.00;5076499;28;20228;-71
2024/01/06 03:23:03;;;;;;;14.53;10.23;;;;;;;7.49;61.29;94592.53;5077507;28;20280;-71
2024/01/06 03:25:29;;;;;;;14.37;10.03;;;;;;;7.42;61.04;94575.75;5076587;28;20231;-70
2024/01/06 03:27:54;;;;;;;18.43;10.37;;;;;;;7.39;60.81;94584.69;5077066;28;20216;-71
2024/01/06 03:30:19;;;;;;;13.20;10.20;;;;;;;7.53;60.58;94596.47;5076256;28;20263;-71
2024/01/06 03:32:45;;;;;;;15.53;11.03;;;;;;;7.55;60.30;94601.59;5077439;28;20220;-71
2024/01/06 03:35:11;;;;;;;18.17;10.67;;;;;;;7.47;60.44;94592.66;5080694;28;20191;-70
2024/01/06 03:37:36;;;;;;;16.97;11.07;;;;;;;7.42;60.77;94584.41;5082088;28;20253;-70
2024/01/06 03:40:02;;;;;;;12.40;9.27;;;;;;;7.50;59.92;94588.94;5084083;28;20224;-70
2024/01/06 03:42:28;;;;;;;12.77;8.67;;;;;;;7.40;60.81;94599.41;5079012;28;20215;-70
2024/01/06 03:44:53;;;;;;;13.10;9.03;;;;;;;7.27;60.78;94578.81;5077862;28;20215;-70
2024/01/06 03:47:19;;;;;;;10.53;8.23;;;;;;;7.42;60.21;94586.19;5081671;28;20220;-70
2024/01/06 03:49:44;;;;;;;14.13;8.17;;;;;;;7.39;60.22;94589.09;5076622;28;20184;-71
2024/01/06 03:52:10;;;;;;;12.17;8.57;;;;;;;7.44;60.27;94590.31;5080682;28;20290;-71
2024/01/06 03:54:35;;;;;;;13.67;8.97;;;;;;;7.49;60.49;94577.63;5079013;28;20223;-70
2024/01/06 03:57:00;;;;;;;11.67;8.57;;;;;;;7.37;60.55;94578.78;5080504;28;20213;-71
2024/01/06 03:59:26;;;;;;;12.33;8.50;;;;;;;7.35;60.76;94585.13;5090491;28;20225;-71
2024/01/06 04:01:51;;;;;;;11.33;7.73;;;;;;;7.37;60.44;94593.66;5077191;28;20240;-71
2024/01/06 04:04:17;;;;;;;11.73;7.97;;;;;;;7.29;60.56;94589.13;5077220;28;20215;-70
2024/01/06 04:06:42;;;;;;;9.97;6.90;;;;;;;7.36;59.89;94582.38;5070952;28;20221;-71
2024/01/06 04:09:09;;;;;;;17.97;9.77;;;;;;;7.35;60.75;94582.50;5057730;28;20220;-71
2024/01/06 04:11:34;;;;;;;17.57;10.40;;;;;;;7.22;61.84;94588.06;5077153;28;20251;-71
2024/01/06 04:14:00;;;;;;;13.03;9.40;;;;;;;7.29;61.06;94586.50;5078218;28;20216;-71
2024/01/06 04:16:27;;;;;;;14.73;8.87;;;;;;;7.23;61.04;94579.25;5073726;28;20184;-70
2024/01/06 04:18:53;;;;;;;15.73;9.07;;;;;;;7.19;61.72;94564.78;5074579;28;20236;-70
2024/01/06 04:21:18;;;;;;;12.40;9.60;;;;;;;7.15;61.80;94568.66;5077305;28;20224;-71
2024/01/06 04:23:43;;;;;;;15.03;10.00;;;;;;;7.19;61.92;94586.56;5081718;28;20208;-70
2024/01/06 04:26:09;;;;;;;17.13;10.60;;;;;;;6.84;63.18;94574.09;5073798;28;20179;-71
2024/01/06 04:28:34;;;;;;;18.57;11.67;;;;;;;7.03;62.73;94584.53;5077024;28;20181;-71
2024/01/06 04:31:00;;;;;;;16.73;10.67;;;;;;;7.11;62.57;94582.97;5075776;28;20216;-71
2024/01/06 04:33:25;;;;;;;13.17;10.90;;;;;;;7.19;62.19;94591.78;5077601;28;20307;-71
2024/01/06 04:35:51;;;;;;;16.97;11.03;;;;;;;7.07;62.63;94600.75;5075160;28;20220;-70
2024/01/06 04:38:16;;;;;;;16.53;11.47;;;;;;;7.17;62.39;94614.63;5074111;28;20224;-71
2024/01/06 04:40:43;;;;;;;15.60;10.80;;;;;;;7.14;62.24;94594.00;5064078;28;20202;-72
2024/01/06 04:43:08;;;;;;;15.10;11.30;;;;;;;7.06;62.55;94602.53;5075616;28;20212;-71
2024/01/06 04:45:34;;;;;;;19.17;12.50;;;;;;;7.19;62.40;94604.00;5077165;28;20284;-72
2024/01/06 04:47:59;;;;;;;19.57;11.67;;;;;;;7.23;62.30;94600.16;5075740;28;20212;-72
2024/01/06 04:50:25;;;;;;;17.90;12.73;;;;;;;7.11;62.18;94586.44;5071644;28;20241;-72
2024/01/06 04:52:51;;;;;;;19.53;12.00;;;;;;;7.06;62.35;94589.47;5072361;28;20177;-71
2024/01/06 04:55:16;;;;;;;15.63;11.37;;;;;;;7.09;61.91;94622.34;5074537;28;20213;-71
2024/01/06 04:57:41;;;;;;;15.57;11.40;;;;;;;6.73;62.93;94605.59;5077990;28;20212;-70
2024/01/06 05:00:07;;;;;;;16.57;11.20;;;;;;;7.05;61.91;94613.13;5072895;28;20327;-71
2024/01/06 05:02:33;;;;;;;15.43;11.60;;;;;;;7.00;61.99;94613.56;5076834;28;20225;-73
2024/01/06 05:04:59;;;;;;;16.33;11.13;;;;;;;6.99;61.80;94606.66;5078311;28;20180;-71
2024/01/06 05:07:24;;;;;;;13.53;10.70;;;;;;;6.80;62.37;94584.00;5071864;28;20205;-71
2024/01/06 05:09:49;;;;;;;15.57;10.90;;;;;;;6.76;63.03;94597.47;5072856;28;20292;-71
2024/01/06 05:12:15;;;;;;;14.37;9.77;;;;;;;6.88;62.16;94588.53;5070755;28;20291;-71
2024/01/06 05:14:40;;;;;;;14.93;10.03;;;;;;;6.83;61.98;94588.94;5076713;28;20213;-71
2024/01/06 05:17:06;;;;;;;11.17;8.07;;;;;;;6.96;61.28;94588.66;5074858;28;20177;-71
2024/01/06 05:19:33;;;;;;;11.77;7.13;;;;;;;7.05;60.56;94595.66;5070053;28;20233;-71
2024/01/06 05:21:58;;;;;;;10.07;7.00;;;;;;;7.01;60.12;94583.84;5070183;28;20216;-71
2024/01/06 05:24:23;;;;;;;8.90;7.13;;;;;;;7.03;59.41;94592.38;5078319;28;20303;-71
2024/01/06 05:26:49;;;;;;;8.47;6.40;;;;;;;7.07;59.32;94578.03;5084357;28;20217;-71
2024/01/06 05:29:14;;;;;;;8.43;6.30;;;;;;;7.05;58.93;94559.03;5074371;28;20303;-71
2024/01/06 05:31:40;;;;;;;7.93;5.40;;;;;;;6.97;59.32;94571.19;5073916;28;20177;-71
2024/01/06 05:34:05;;;;;;;8.63;5.97;;;;;;;7.03;58.91;94566.22;5073836;28;20219;-72
2024/01/06 05:36:32;;;;;;;7.33;5.63;;;;;;;6.95;59.09;94547.81;5067747;28;20299;-73
2024/01/06 05:38:58;;;;;;;7.77;5.63;;;;;;;7.00;58.74;94556.06;5074314;28;20216;-71
2024/01/06 05:41:23;;;;;;;8.90;6.27;;;;;;;7.01;58.50;94555.09;5069296;28;20278;-70
2024/01/06 05:43:48;;;;;;;12.47;5.43;;;;;;;7.07;58.18;94569.38;5069191;28;20272;-70
2024/01/06 05:46:24;;;;;;;7.90;5.70;;;;;;;7.07;58.11;94567.56;5069059;28;20303;-71
2024/01/06 05:48:49;;;;;;;8.83;6.30;;;;;;;6.91;58.64;94556.88;5077868;28;20208;-71
2024/01/06 05:51:15;;;;;;;8.83;6.43;;;;;;;6.91;58.87;94567.34;5078462;28;20227;-71
2024/01/06 05:53:42;;;;;;;9.33;6.30;;;;;;;7.00;58.96;94539.53;5074426;28;20218;-70
2024/01/06 05:56:08;;;;;;;8.77;6.27;;;;;;;6.90;58.99;94559.66;5076808;28;20191;-70
2024/01/06 05:58:34;;;;;;;9.17;6.87;;;;;;;6.87;58.80;94562.53;5075283;28;20184;-70
2024/01/06 06:00:59;;;;;;;8.33;6.37;;;;;;;6.98;58.78;94552.75;5072797;28;20224;-72
2024/01/06 06:03:25;;;;;;;8.80;6.73;;;;;;;6.77;59.49;94559.94;5076825;28;20229;-73
2024/01/06 06:05:50;;;;;;;10.73;6.90;;;;;;;6.77;59.51;94555.53;5073789;28;20232;-72
2024/01/06 06:08:16;;;;;;;10.80;7.83;;;;;;;6.67;60.23;94556.50;5076649;28;20245;-73
2024/01/06 06:10:51;;;;;;;11.40;7.93;;;;;;;6.77;60.01;94549.50;5077492;28;20188;-73
2024/01/06 06:13:17;;;;;;;10.30;7.27;;;;;;;6.76;60.04;94559.13;5073337;28;20280;-73
2024/01/06 06:15:42;;;;;;;9.87;7.27;;;;;;;6.78;59.62;94557.19;5071242;28;20307;-72
2024/01/06 06:18:08;;;;;;;12.23;8.20;;;;;;;6.69;60.31;94547.56;5071614;28;20209;-72
2024/01/06 06:20:33;;;;;;;12.63;7.50;;;;;;;6.75;60.56;94556.63;5075272;28;20243;-73
2024/01/06 06:22:58;;;;;;;8.03;6.90;;;;;;;6.82;60.01;94542.88;5073962;28;20187;-72
2024/01/06 06:25:24;;;;;;;8.37;6.53;;;;;;;6.80;59.90;94536.16;5074685;28;20195;-71
2024/01/06 06:27:49;;;;;;;7.57;6.43;;;;;;;6.77;59.78;94560.75;5075031;28;20227;-72
2024/01/06 06:30:15;;;;;;;8.40;6.17;;;;;;;6.77;59.58;94563.38;5074960;28;20220;-71
2024/01/06 06:32:40;;;;;;;9.90;6.20;;;;;;;6.71;59.88;94563.94;5071557;28;20227;-73
2024/01/06 06:35:06;;;;;;;10.47;7.30;;;;;;;6.74;60.03;94560.22;5073463;28;20180;-73
2024/01/06 06:37:32;;;;;;;11.83;7.80;;;;;;;6.82;59.89;94568.19;5070380;28;20208;-73
2024/01/06 06:39:57;;;;;;;16.07;8.13;;;;;;;6.73;60.28;94558.56;5074780;28;20227;-73
2024/01/06 06:42:22;;;;;;;13.17;9.50;;;;;;;6.88;60.04;94551.13;5074221;28;20221;-72
2024/01/06 06:44:48;;;;;;;12.80;8.27;;;;;;;6.92;60.04;94565.53;5072385;28;20217;-72
2024/01/06 06:47:13;;;;;;;16.60;8.90;;;;;;;7.00;59.79;94571.75;5068799;28;20225;-73
2024/01/06 06:49:39;;;;;;;12.67;8.33;;;;;;;6.88;60.30;94583.31;5078275;28;20195;-72
2024/01/06 06:52:06;;;;;;;12.70;8.17;;;;;;;6.63;61.08;94579.50;5075917;28;20240;-73
2024/01/06 06:54:32;;;;;;;12.90;8.30;;;;;;;6.60;60.89;94559.69;5074663;28;20243;-73
2024/01/06 06:56:57;;;;;;;9.93;7.17;;;;;;;6.71;60.68;94570.94;5073545;28;20245;-72
2024/01/06 06:59:23;;;;;;;8.77;7.87;;;;;;;6.67;60.98;94572.19;5076632;28;20324;-73
2024/01/06 07:01:49;;;;;;;11.53;8.47;;;;;;;6.82;60.43;94558.56;5079352;28;20284;-72
2024/01/06 07:04:14;;;;;;;10.40;8.10;;;;;;;6.90;60.05;94575.34;5073107;28;20282;-72
2024/01/06 07:06:39;;;;;;;10.83;8.23;;;;;;;7.01;59.72;94572.56;5077945;28;20236;-72
2024/01/06 07:09:05;;;;;;;8.97;6.80;;;;;;;7.08;59.52;94550.09;5072897;28;20213;-70
2024/01/06 07:11:30;;;;;;;12.80;7.80;;;;;;;7.14;59.67;94554.78;5071400;28;20221;-72
2024/01/06 07:13:56;;;;;;;14.07;8.67;;;;;;;6.95;60.11;94568.72;5075248;28;20223;-72
2024/01/06 07:16:21;;;;;;;12.93;7.40;;;;;;;7.02;59.76;94561.94;5079389;28;20208;-73
2024/01/06 07:18:46;;;;;;;12.97;8.40;;;;;;;7.05;59.99;94547.78;5078694;28;20254;-72
2024/01/06 07:21:12;;;;;;;11.93;8.30;;;;;;;7.06;60.18;94550.25;5070526;28;20311;-72
2024/01/06 07:23:38;;;;;;;11.53;7.57;;;;;;;7.14;59.89;94561.81;5078843;28;20255;-72
2024/01/06 07:26:03;;;;;;;10.50;8.27;;;;;;;7.17;59.69;94557.09;5078809;28;20283;-72
2024/01/06 07:28:29;;;;;;;13.97;8.10;;;;;;;7.00;60.18;94561.28;5077040;28;20180;-72
2024/01/06 07:30:54;;;;;;;11.00;7.50;;;;;;;7.07;59.66;94551.88;5071608;28;20274;-73
2024/01/06 07:33:20;;;;;;;11.37;7.60;;;;;;;7.12;59.71;94559.31;5068362;28;20232;-72
2024/01/06 07:35:46;;;;;;;13.23;7.83;;;;;;;7.17;59.41;94536.19;5068227;28;20222;-72
2024/01/06 07:38:12;;;;;;;9.70;7.50;;;;;;;7.25;59.18;94561.63;5077997;28;20231;-72
2024/01/06 07:40:38;;;;;;;14.73;8.17;;;;;;;7.26;59.37;94544.97;5077364;28;20314;-72
2024/01/06 07:43:04;;;;;;;11.40;8.23;;;;;;;7.34;59.30;94536.41;5068795;28;20311;-72
2024/01/06 07:45:30;;;;;;;11.67;8.47;;;;;;;7.33;59.13;94551.28;5071179;28;20229;-74
2024/01/06 07:47:57;;;;;;;12.13;8.33;;;;;;;7.46;58.70;94543.94;5075319;28;20215;-72
2024/01/06 07:50:22;;;;;;;10.83;8.03;;;;;;;7.58;58.61;94562.88;5073616;28;20227;-74
2024/01/06 07:52:48;;;;;;;11.87;7.80;;;;;;;7.50;58.63;94554.91;5079237;28;20209;-76
2024/01/06 07:55:13;;;;;;;11.03;8.07;;;;;;;7.56;57.96;94541.25;5071711;28;20228;-74
2024/01/06 07:57:39;;;;;;;13.93;8.10;;;;;;;7.70;57.84;94532.13;5061756;28;20212;-76
2024/01/06 08:00:05;;;;;;;10.73;7.43;;;;;;;7.82;57.92;94544.00;5078159;28;20229;-75
2024/01/06 08:02:30;;;;;;;11.97;8.00;;;;;;;7.72;58.24;94543.22;5072847;28;20217;-76
2024/01/06 08:04:56;;;;;;;15.90;8.50;;;;;;;7.75;58.34;94553.41;5079356;28;20246;-75
2024/01/06 08:07:22;;;;;;;15.03;8.47;;;;;;;7.66;58.98;94572.63;5077396;28;20217;-71
2024/01/06 08:09:48;;;;;;;12.80;7.90;;;;;;;7.77;58.67;94550.66;5072236;28;20221;-72
2024/01/06 08:12:15;;;;;;;16.13;8.70;;;;;;;7.52;59.53;94553.00;5073332;28;20231;-73
2024/01/06 08:14:40;;;;;;;12.93;8.50;;;;;;;7.71;58.75;94557.31;5074314;28;20301;-73
2024/01/06 08:17:06;;;;;;;12.67;8.30;;;;;;;7.75;58.62;94563.88;5075282;28;20231;-72
2024/01/06 08:19:33;;;;;;;13.67;8.40;;;;;;;7.78;58.53;94537.44;5075301;28;20258;-72
2024/01/06 08:21:58;;;;;;;10.53;8.60;;;;;;;7.86;58.71;94542.75;5073094;28;20224;-72
2024/01/06 08:24:24;;;;;;;12.00;7.90;;;;;;;7.91;58.78;94540.53;5073579;28;20233;-73
2024/01/06 08:26:50;;;;;;;13.87;8.10;;;;;;;7.84;58.69;94559.59;5074992;28;20216;-72
2024/01/06 08:29:16;;;;;;;10.53;8.63;;;;;;;7.84;58.38;94536.84;5069428;28;20273;-72
2024/01/06 08:31:42;;;;;;;14.70;8.53;;;;;;;8.04;57.83;94547.19;5074706;28;20267;-70
2024/01/06 08:34:07;;;;;;;13.47;8.60;;;;;;;7.90;58.29;94554.56;5073912;28;20292;-73
2024/01/06 08:36:34;;;;;;;11.00;8.67;;;;;;;8.24;57.73;94521.72;5073338;28;20224;-72
2024/01/06 08:38:59;;;;;;;12.33;8.03;;;;;;;8.29;57.40;94554.34;5074009;28;20223;-72
2024/01/06 08:41:25;;;;;;;15.90;8.40;;;;;;;8.40;57.20;94545.47;5089800;28;20217;-72
2024/01/06 08:43:50;;;;;;;15.10;7.83;;;;;;;8.48;56.82;94542.09;5075499;28;20185;-74
2024/01/06 08:46:16;;;;;;;17.20;9.67;;;;;;;8.49;56.52;94525.38;5071592;28;20216;-72
2024/01/06 08:48:41;;;;;;;13.57;8.67;;;;;;;8.60;56.29;94535.63;5073807;28;20242;-73
2024/01/06 08:51:06;;;;;;;14.17;9.47;;;;;;;8.63;56.48;94545.81;5070421;28;20233;-73
2024/01/06 08:53:32;;;;;;;16.93;8.97;;;;;;;8.47;56.63;94529.94;5070960;28;20240;-74
2024/01/06 08:55:57;;;;;;;14.80;10.23;;;;;;;8.56;56.39;94544.78;5069695;28;20184;-73
2024/01/06 08:58:23;;;;;;;13.17;10.50;;;;;;;8.56;56.20;94542.97;5080590;28;20184;-72
2024/01/06 09:00:48;;;;;;;17.17;11.37;;;;;;;8.59;56.35;94531.38;5074366;28;20224;-71
2024/01/06 09:03:14;;;;;;;17.67;12.17;;;;;;;8.46;56.88;94526.50;5070275;28;20250;-72
2024/01/06 09:05:39;;;;;;;20.13;12.10;;;;;;;8.35;57.52;94534.56;5069325;28;20220;-72
2024/01/06 09:08:05;;;;;;;16.30;12.17;;;;;;;8.21;57.31;94522.81;5074280;28;20199;-71
2024/01/06 09:10:30;;;;;;;27.23;13.37;;;;;;;8.46;57.04;94502.13;5075715;28;20172;-71
2024/01/06 09:12:56;;;;;;;17.60;14.67;;;;;;;8.75;56.50;94543.78;5073461;28;20261;-71
2024/01/06 09:15:22;;;;;;;18.47;15.10;;;;;;;8.74;56.10;94516.75;5070187;28;20227;-72
2024/01/06 09:17:48;;;;;;;24.03;16.93;;;;;;;8.73;55.89;94495.94;5075724;28;20212;-72
2024/01/06 09:20:13;;;;;;;24.20;17.93;;;;;;;8.86;55.74;94498.16;5075079;28;20313;-74
2024/01/06 09:22:38;;;;;;;29.27;21.27;;;;;;;8.83;56.22;94502.72;5079257;28;20670;-74
2024/01/06 09:25:04;;;;;;;25.93;19.50;;;;;;;8.87;56.12;94502.41;5072494;28;20228;-74
2024/01/06 09:27:30;;;;;;;34.30;23.53;;;;;;;8.76;56.02;94506.91;5047698;28;20212;-74
2024/01/06 09:29:55;;;;;;;27.80;21.63;;;;;;;8.82;56.05;94476.63;5072825;28;20233;-77
2024/01/06 09:32:22;;;;;;;30.63;22.10;;;;;;;8.86;55.82;94487.66;5070213;28;20221;-77
2024/01/06 09:34:48;;;;;;;30.43;21.33;;;;;;;8.88;55.71;94490.97;5076343;28;20184;-73
2024/01/06 09:37:13;;;;;;;23.47;19.17;;;;;;;8.90;55.51;94441.78;5073359;28;20230;-76
2024/01/06 09:39:39;;;;;;;24.60;16.97;;;;;;;8.96;55.78;94493.63;5074585;28;20224;-74
2024/01/06 09:42:08;;;;;;;21.37;15.83;;;;;;;9.15;55.20;94455.88;5074273;28;20790;-73
2024/01/06 09:44:34;;;;;;;23.47;15.90;;;;;;;9.09;55.33;94477.44;5074648;28;20216;-72
2024/01/06 09:47:01;;;;;;;22.70;14.33;;;;;;;9.20;55.07;94466.72;5068111;28;20190;-72
2024/01/06 09:49:28;;;;;;;23.50;14.10;;;;;;;9.18;54.76;94464.22;5077608;28;20242;-78
2024/01/06 09:51:58;;;;;;;22.80;15.33;;;;;;;9.23;55.07;94479.50;5076659;28;20242;-79
2024/01/06 09:54:29;;;;;;;25.30;17.67;;;;;;;9.26;55.05;94477.38;5062362;28;20251;-79
2024/01/06 09:56:55;;;;;;;27.47;17.20;;;;;;;9.09;55.74;94410.09;5072029;28;20213;-77
2024/01/06 09:59:21;;;;;;;27.43;18.07;;;;;;;9.18;55.54;94450.31;5076882;28;20271;-78
2024/01/06 10:01:47;;;;;;;27.87;19.87;;;;;;;9.26;55.60;94464.28;5075058;28;20200;-80
2024/01/06 10:04:12;;;;;;;27.73;18.93;;;;;;;9.29;55.35;94447.41;5068870;28;20208;-73
2024/01/06 10:06:37;;;;;;;29.63;19.93;;;;;;;9.36;55.36;94450.22;5075766;28;20247;-78
2024/01/06 10:09:05;;;;;;;29.00;21.70;;;;;;;9.30;55.44;94440.34;5069951;28;20220;-77
2024/01/06 10:11:30;;;;;;;34.93;21.53;;;;;;;9.28;54.97;94440.50;5069477;28;20224;-72
2024/01/06 10:13:56;;;;;;;32.27;21.37;;;;;;;9.29;55.06;94413.28;5068044;28;20193;-73
2024/01/06 10:16:22;;;;;;;33.23;22.00;;;;;;;9.25;55.52;94412.78;5078615;28;20181;-70
2024/01/06 10:18:47;;;;;;;28.33;19.17;;;;;;;9.36;55.05;94419.56;5068410;28;20220;-72
2024/01/06 10:21:17;;;;;;;32.50;18.83;;;;;;;9.05;55.85;94372.06;5061792;28;20217;-72
2024/01/06 10:23:42;;;;;;;24.17;18.03;;;;;;;9.30;55.49;94435.09;5066415;28;20224;-72
2024/01/06 10:26:12;;;;;;;24.73;17.40;;;;;;;9.33;55.05;94398.03;5066650;28;20212;-70
2024/01/06 10:28:38;;;;;;;28.70;18.07;;;;;;;9.32;55.03;94389.34;5069536;28;20189;-70
2024/01/06 10:31:03;;;;;;;26.20;18.07;;;;;;;9.52;54.52;94405.66;5069112;28;20225;-73
2024/01/06 10:33:29;;;;;;;28.67;19.43;;;;;;;9.57;54.12;94400.75;5071746;28;20220;-72
2024/01/06 10:35:57;;;;;;;25.93;18.10;;;;;;;9.50;54.07;94370.88;5063916;28;20220;-71
2024/01/06 10:38:25;;;;;;;23.93;18.00;;;;;;;9.57;53.93;94406.00;5068185;28;20221;-72
2024/01/06 10:41:06;;;;;;;22.23;17.13;;;;;;;9.61;53.78;94378.44;5074493;28;20213;-73
2024/01/06 10:43:36;;;;;;;26.07;16.17;;;;;;;9.69;53.70;94383.69;5054530;28;20225;-71
2024/01/06 10:46:04;;;;;;;24.10;15.20;;;;;;;10.05;52.64;94390.47;5070598;28;20222;-71
2024/01/06 10:48:34;;;;;;;18.13;13.60;;;;;;;9.93;52.71;94361.91;5067571;28;20314;-73
2024/01/06 10:51:01;;;;;;;20.60;14.57;;;;;;;9.89;52.67;94365.00;5061594;28;20240;-74
2024/01/06 10:53:27;;;;;;;20.60;15.17;;;;;;;10.16;51.54;94361.25;5088390;28;20267;-73
2024/01/06 10:55:53;;;;;;;20.93;15.07;;;;;;;10.01;52.03;94376.84;5068952;28;20235;-73
2024/01/06 10:58:19;;;;;;;22.37;15.50;;;;;;;9.98;52.11;94355.34;5063519;28;20224;-72
2024/01/06 11:00:45;;;;;;;22.87;15.10;;;;;;;9.93;52.25;94355.84;5069564;28;20330;-73
2024/01/06 11:03:13;;;;;;;19.80;14.13;;;;;;;9.99;52.47;94360.41;5069905;28;20292;-75
2024/01/06 11:05:40;;;;;;;17.97;14.43;;;;;;;9.95;52.77;94338.13;5069717;28;20212;-73
2024/01/06 11:08:07;;;;;;;22.57;15.37;;;;;;;9.88;53.13;94348.44;5074891;28;20200;-73
2024/01/06 11:10:33;;;;;;;25.17;16.00;;;;;;;10.03;52.73;94324.97;5071709;28;20177;-72
2024/01/06 11:13:21;;;;;;;24.27;15.47;;;;;;;10.08;53.16;94338.44;5074871;28;20335;-73
2024/01/06 11:15:54;;;;;;;22.77;14.73;;;;;;;10.15;53.16;94344.66;5052208;28;20303;-71
2024/01/06 11:18:40;;;;;;;23.33;15.00;;;;;;;10.20;52.92;94327.59;5062636;28;20228;-72
2024/01/06 11:21:21;;;;;;;24.13;14.47;;;;;;;10.18;53.34;94340.06;5058600;28;20225;-71
2024/01/06 11:24:07;;;;;;;27.13;16.00;;;;;;;10.29;52.99;94316.94;5071609;28;20292;-72